createdAt,value
2023-03-13T00:02:50.799Z,14.87
2023-03-13T00:07:54.035Z,11.63
2023-03-13T00:12:57.154Z,17.87
2023-03-13T00:18:00.565Z,13.80
2023-03-13T00:23:03.909Z,15.10
2023-03-13T00:28:06.996Z,19.00
2023-03-13T00:33:10.075Z,15.87
2023-03-13T00:38:13.272Z,13.77
2023-03-13T00:43:16.392Z,13.90
2023-03-13T00:48:19.540Z,14.03
2023-03-13T00:53:22.950Z,17.10
2023-03-13T00:58:28.044Z,14.50
2023-03-13T01:03:31.227Z,17.77
2023-03-13T01:08:34.935Z,13.67
2023-03-13T01:13:38.287Z,15.83
2023-03-13T01:18:44.396Z,16.53
2023-03-13T01:23:48.979Z,19.80
2023-03-13T01:28:52.729Z,13.53
2023-03-13T01:33:58.911Z,10.50
2023-03-13T01:39:02.476Z,13.47
2023-03-13T01:44:05.535Z,10.37
2023-03-13T01:49:11.302Z,13.37
2023-03-13T01:54:53.650Z,8.13
2023-03-13T02:00:08.315Z,9.43
2023-03-13T02:05:11.947Z,12.13
2023-03-13T02:10:19.537Z,9.27
2023-03-13T02:15:25.368Z,14.30
2023-03-13T02:20:28.529Z,15.90
2023-03-13T02:25:58.040Z,13.43
2023-03-13T02:31:01.824Z,13.60
2023-03-13T02:36:07.373Z,19.03
2023-03-13T02:41:11.575Z,17.67
2023-03-13T02:46:17.875Z,21.00
2023-03-13T02:51:25.800Z,24.80
2023-03-13T02:56:34.073Z,22.43
2023-03-13T03:01:37.194Z,21.00
2023-03-13T03:06:40.232Z,20.90
2023-03-13T03:11:43.683Z,20.53
2023-03-13T03:16:46.820Z,24.23
2023-03-13T03:21:50.052Z,21.50
2023-03-13T03:26:53.226Z,22.20
2023-03-13T03:31:56.436Z,21.53
2023-03-13T03:36:59.838Z,19.30
2023-03-13T03:42:02.977Z,20.13
2023-03-13T03:47:06.326Z,25.63
2023-03-13T03:52:09.601Z,26.47
2023-03-13T03:57:12.728Z,22.57
2023-03-13T04:02:15.983Z,30.33
2023-03-13T04:07:19.142Z,23.13
2023-03-13T04:12:22.477Z,23.77
2023-03-13T04:17:26.331Z,26.43
2023-03-13T04:22:29.337Z,26.27
2023-03-13T04:27:33.643Z,29.57
2023-03-13T04:32:36.868Z,27.23
2023-03-13T04:37:40.114Z,27.40
2023-03-13T04:42:43.381Z,28.83
2023-03-13T04:47:49.494Z,30.83
2023-03-13T04:52:52.753Z,27.07
2023-03-13T04:57:55.897Z,32.83
2023-03-13T05:02:58.983Z,30.20
2023-03-13T05:08:02.691Z,33.50
2023-03-13T05:13:07.481Z,32.00
2023-03-13T05:18:10.685Z,29.77
2023-03-13T05:23:13.845Z,37.43
2023-03-13T05:28:17.134Z,34.80
2023-03-13T05:33:20.650Z,33.33
2023-03-13T05:38:23.849Z,36.93
2023-03-13T05:43:26.997Z,33.10
2023-03-13T05:48:30.174Z,35.67
2023-03-13T05:53:33.405Z,39.83
2023-03-13T05:58:36.735Z,38.50
2023-03-13T06:03:40.231Z,39.37
2023-03-13T06:08:43.670Z,39.53
2023-03-13T06:13:46.958Z,42.53
2023-03-13T06:18:50.375Z,39.07
2023-03-13T06:23:54.702Z,40.90
2023-03-13T06:28:57.850Z,40.47
2023-03-13T06:34:01.266Z,45.47
2023-03-13T06:39:04.582Z,50.57
2023-03-13T06:44:07.690Z,35.90
2023-03-13T06:49:11.302Z,38.90
2023-03-13T06:54:14.539Z,36.50
2023-03-13T06:59:17.743Z,35.50
2023-03-13T07:04:20.983Z,33.07
2023-03-13T07:09:24.418Z,36.13
2023-03-13T07:14:27.934Z,37.50
2023-03-13T07:19:31.237Z,30.83
2023-03-13T07:24:34.795Z,26.40
2023-03-13T07:29:38.012Z,27.67
2023-03-13T07:34:41.278Z,30.10
2023-03-13T07:39:47.722Z,27.83
2023-03-13T07:44:51.644Z,25.47
2023-03-13T07:49:58.017Z,24.63
2023-03-13T07:55:01.405Z,27.67
2023-03-13T08:00:06.765Z,26.97
2023-03-13T08:05:10.407Z,25.40
2023-03-13T08:10:16.403Z,25.27
2023-03-13T08:15:25.715Z,23.93
2023-03-13T08:20:31.806Z,22.57
2023-03-13T08:26:43.917Z,18.03
2023-03-13T08:31:59.423Z,15.27
2023-03-13T08:37:04.590Z,18.13
2023-03-13T08:42:11.845Z,13.13
2023-03-13T08:47:15.265Z,15.97
2023-03-13T08:52:18.426Z,13.00
2023-03-13T08:57:22.300Z,13.97
2023-03-13T09:02:25.591Z,12.90
2023-03-13T09:07:28.855Z,13.47
2023-03-13T09:18:03.080Z,19.07
2023-03-13T09:23:06.261Z,14.93
2023-03-13T09:28:09.461Z,17.37
2023-03-13T09:33:12.766Z,16.00
2023-03-13T09:38:15.897Z,16.53
2023-03-13T09:43:30.670Z,19.00
2023-03-13T09:48:43.367Z,18.33
2023-03-13T09:54:01.799Z,13.00
2023-03-13T09:59:36.942Z,14.27
2023-03-13T10:04:49.554Z,12.53
2023-03-13T10:09:54.114Z,19.77
2023-03-13T10:15:24.839Z,24.47
2023-03-13T10:20:32.621Z,22.67
2023-03-13T10:25:41.520Z,17.10
2023-03-13T10:30:59.820Z,22.30
2023-03-13T10:36:07.609Z,28.07
2023-03-13T10:41:25.751Z,28.07
2023-03-13T10:46:34.684Z,25.90
2023-03-13T10:52:08.999Z,18.67
2023-03-13T10:57:24.144Z,16.40
2023-03-13T11:02:34.195Z,19.80
2023-03-13T11:07:43.253Z,18.47
2023-03-13T11:12:48.558Z,18.13
2023-03-13T11:18:03.525Z,17.83
2023-03-13T11:23:28.778Z,23.70
2023-03-13T11:28:48.283Z,21.87
2023-03-13T11:34:02.903Z,20.27
2023-03-13T11:39:37.450Z,13.90
2023-03-13T11:44:50.114Z,15.83
2023-03-13T11:50:35.440Z,18.13
2023-03-13T11:56:07.604Z,19.57
2023-03-13T12:01:23.589Z,21.10
2023-03-13T12:06:36.441Z,17.40
2023-03-13T12:12:05.441Z,22.07
2023-03-13T12:17:39.272Z,20.63
2023-03-13T12:22:53.216Z,21.53
2023-03-13T12:28:22.259Z,16.00
2023-03-13T12:33:46.969Z,19.33
2023-03-13T12:38:58.977Z,22.30
2023-03-13T12:44:12.531Z,24.23
2023-03-13T12:49:39.394Z,21.03
2023-03-13T12:54:51.420Z,24.13
2023-03-13T13:00:00.510Z,25.03
2023-03-13T13:05:04.489Z,18.57
2023-03-13T15:09:58.217Z,10.83
2023-03-13T15:15:01.472Z,15.90
2023-03-13T15:20:09.628Z,14.50
2023-03-13T15:25:23.562Z,14.03
2023-03-13T15:30:26.892Z,14.00
2023-03-13T15:35:32.854Z,10.83
2023-03-13T15:40:36.344Z,10.47
2023-03-13T15:45:41.916Z,12.33
2023-03-13T15:50:45.652Z,16.17
2023-03-13T15:55:49.759Z,11.20
2023-03-13T16:00:53.715Z,13.33
2023-03-13T16:05:57.998Z,10.77
2023-03-13T16:11:01.962Z,14.73
2023-03-13T16:16:31.506Z,14.83
2023-03-13T16:27:18.103Z,11.97
2023-03-13T16:32:24.945Z,12.37
2023-03-13T16:37:28.132Z,12.13
2023-03-13T16:42:35.361Z,11.13
2023-03-13T16:47:38.923Z,11.40
2023-03-13T16:52:42.058Z,10.43
2023-03-13T16:57:45.584Z,14.50
2023-03-13T17:02:49.413Z,11.30
2023-03-13T17:07:53.694Z,11.47
2023-03-13T17:12:57.273Z,13.10
2023-03-13T17:18:01.567Z,27.63
2023-03-13T17:23:05.232Z,27.80
2023-03-13T17:28:16.330Z,20.50
2023-03-13T17:33:20.863Z,13.33
2023-03-13T17:38:25.372Z,15.97
2023-03-13T17:43:29.071Z,19.87
2023-03-13T17:48:33.454Z,15.57
2023-03-13T17:53:38.836Z,17.37
2023-03-13T17:58:42.855Z,13.67
2023-03-13T18:03:47.674Z,18.77
2023-03-13T18:08:53.363Z,18.77
2023-03-13T18:13:57.344Z,18.07
2023-03-13T18:19:02.355Z,15.53
2023-03-13T18:24:16.786Z,20.53
2023-03-13T18:29:30.523Z,19.20
2023-03-13T18:34:35.907Z,20.17
2023-03-13T18:39:41.025Z,17.43
2023-03-13T18:44:45.836Z,20.33
2023-03-13T18:49:51.706Z,22.83
2023-03-13T18:54:58.185Z,16.13
2023-03-13T19:00:03.067Z,14.87
2023-03-13T19:05:12.693Z,18.37
2023-03-13T19:10:36.298Z,20.93
2023-03-13T19:15:41.697Z,19.63
2023-03-13T19:20:47.683Z,18.07
2023-03-13T19:25:53.471Z,12.60
2023-03-13T19:30:57.721Z,13.40
2023-03-13T19:36:05.378Z,15.70
2023-03-13T19:41:14.061Z,34.40
2023-03-13T19:46:30.084Z,29.40
2023-03-13T19:51:37.417Z,22.80
2023-03-13T19:56:55.796Z,17.33
2023-03-13T20:02:06.092Z,16.30
2023-03-13T20:07:15.306Z,14.77
2023-03-13T20:12:23.301Z,14.43
2023-03-13T20:17:33.685Z,17.70
2023-03-13T20:22:42.479Z,17.27
2023-03-13T20:27:50.757Z,14.87
2023-03-13T20:33:02.814Z,14.90
2023-03-13T20:38:10.673Z,13.87
2023-03-13T20:43:17.554Z,11.97
2023-03-13T20:48:23.367Z,11.00
2023-03-13T20:53:30.929Z,14.50
2023-03-13T20:58:40.103Z,13.33
2023-03-13T21:03:48.100Z,10.77
2023-03-13T21:08:52.821Z,13.30
2023-03-13T21:13:57.566Z,13.37
2023-03-13T21:19:02.733Z,10.63
2023-03-13T21:24:08.688Z,13.43
2023-03-13T21:29:14.298Z,13.47
2023-03-13T21:34:17.550Z,10.27
2023-03-13T21:39:21.620Z,13.77
2023-03-13T21:44:26.428Z,12.70
2023-03-13T21:49:32.309Z,13.43
2023-03-13T21:54:36.211Z,12.40
2023-03-13T21:59:39.868Z,11.07
2023-03-13T22:04:44.713Z,19.07
2023-03-13T22:09:48.673Z,11.67
2023-03-13T22:14:53.077Z,13.10
2023-03-13T22:19:56.428Z,11.23
2023-03-13T22:24:59.670Z,12.57
2023-03-13T22:30:02.961Z,12.93
2023-03-13T22:35:06.884Z,7.80
2023-03-13T22:40:11.412Z,11.27
2023-03-13T22:45:14.661Z,12.63
2023-03-13T22:50:21.161Z,9.57
2023-03-13T22:55:24.224Z,13.37
2023-03-13T23:00:27.452Z,14.43
2023-03-13T23:05:30.992Z,10.50
2023-03-13T23:10:34.162Z,12.30
2023-03-13T23:15:54.770Z,8.93
2023-03-13T23:20:58.612Z,13.90
2023-03-13T23:26:04.188Z,11.67
2023-03-13T23:31:19.022Z,14.37
2023-03-13T23:36:22.346Z,12.50
2023-03-13T23:41:25.734Z,12.10
2023-03-13T23:46:28.877Z,15.07
2023-03-13T23:51:32.027Z,11.30
2023-03-13T23:56:35.165Z,10.57
